Time;durP1;ratioP1;P1;durP2;ratioP2;P2;SDS_P1;SDS_P2;PMS_P1;PMS_P2;Temp;Humidity;BMP_temperature;BMP_pressure;BME280_temperature;BME280_humidity;BME280_pressure;Samples;Min_cycle;Max_cycle;Signal;HPM_P1;HPM_P2
2021/09/16 00:03:53;;;;;;;24.20;17.85;;;;;;;17.45;70.33;99543.58;254321;1107;116330;-71
2021/09/16 00:08:55;;;;;;;21.05;18.23;;;;;;;17.41;70.41;99530.98;253869;1106;115596;-71
2021/09/16 00:13:59;;;;;;;22.00;17.73;;;;;;;17.41;70.46;99537.18;253784;1100;117882;-72
2021/09/16 00:19:05;;;;;;;19.80;16.72;;;;;;;17.42;70.49;99527.20;254702;1106;115939;-72
2021/09/16 00:24:08;;;;;;;20.40;18.18;;;;;;;17.38;70.42;99526.97;254032;1107;116214;-72
2021/09/16 00:29:11;;;;;;;23.78;17.58;;;;;;;17.34;70.36;99514.34;254304;1107;115737;-68
2021/09/16 00:34:16;;;;;;;19.45;16.98;;;;;;;17.34;70.57;99520.53;253803;1107;116777;-68
2021/09/16 00:39:19;;;;;;;23.83;17.53;;;;;;;17.33;70.64;99523.52;254133;1100;115793;-70
2021/09/16 00:44:22;;;;;;;22.48;17.75;;;;;;;17.33;70.58;99512.73;254378;1106;116582;-68
2021/09/16 00:49:25;;;;;;;24.03;19.45;;;;;;;17.31;70.20;99504.13;253762;1107;115846;-70
2021/09/16 00:54:33;;;;;;;23.67;17.90;;;;;;;17.29;70.79;99504.41;254288;1107;116036;-69
2021/09/16 00:59:37;;;;;;;25.05;18.05;;;;;;;17.28;70.86;99502.81;254125;1106;116963;-69
2021/09/16 01:04:39;;;;;;;20.20;17.70;;;;;;;17.26;70.40;99501.48;254167;1106;116162;-69
2021/09/16 01:09:43;;;;;;;24.23;17.68;;;;;;;17.21;70.73;99504.22;254135;1100;115611;-68
2021/09/16 01:14:47;;;;;;;24.38;18.80;;;;;;;17.15;71.02;99501.56;254009;1107;115420;-70
2021/09/16 01:19:52;;;;;;;23.88;18.45;;;;;;;17.14;71.02;99491.88;254855;1106;116218;-69
2021/09/16 01:24:55;;;;;;;23.90;20.00;;;;;;;17.14;71.12;99491.88;254776;1107;116765;-71
2021/09/16 01:29:59;;;;;;;26.25;18.80;;;;;;;17.17;71.15;99488.63;254435;1107;116700;-70
2021/09/16 01:35:04;;;;;;;20.33;18.28;;;;;;;17.16;71.01;99472.74;253868;1107;116993;-71
2021/09/16 01:40:09;;;;;;;22.40;18.90;;;;;;;17.13;71.31;99474.11;255553;1107;135544;-71
2021/09/16 01:45:14;;;;;;;26.33;19.78;;;;;;;17.11;71.33;99468.23;256152;1107;115444;-71
2021/09/16 01:50:21;;;;;;;25.50;18.75;;;;;;;17.12;71.23;99464.42;256283;1106;115324;-71
2021/09/16 01:55:25;;;;;;;24.03;18.03;;;;;;;17.16;71.48;99468.16;255267;1100;115855;-70
2021/09/16 02:00:30;;;;;;;24.65;20.45;;;;;;;17.21;71.52;99469.20;255152;1107;115241;-70
2021/09/16 02:05:34;;;;;;;26.43;20.63;;;;;;;17.18;71.74;99467.88;253920;1107;118181;-71
2021/09/16 02:10:38;;;;;;;25.03;20.50;;;;;;;17.17;71.74;99461.69;253820;1107;116890;-70
2021/09/16 02:15:43;;;;;;;20.33;16.73;;;;;;;17.13;71.62;99457.95;253946;1107;116214;-70
2021/09/16 02:20:46;;;;;;;28.20;19.85;;;;;;;17.10;71.76;99461.24;253743;1107;116495;-69
2021/09/16 02:25:49;;;;;;;27.63;21.10;;;;;;;17.08;71.83;99460.72;253772;1106;115874;-69
2021/09/16 02:30:53;;;;;;;22.78;19.70;;;;;;;17.01;72.14;99443.28;253973;1107;117016;-70
2021/09/16 02:35:57;;;;;;;27.00;19.20;;;;;;;16.97;72.23;99447.63;253600;1106;116019;-70
2021/09/16 02:41:01;;;;;;;23.17;20.83;;;;;;;16.96;72.49;99427.17;253685;1107;117208;-71
2021/09/16 02:46:04;;;;;;;26.88;18.98;;;;;;;16.97;72.78;99424.20;254240;1107;115901;-70
2021/09/16 02:51:07;;;;;;;22.53;19.78;;;;;;;16.95;72.54;99428.25;253789;1107;117815;-70
2021/09/16 02:56:11;;;;;;;23.75;19.40;;;;;;;16.89;72.74;99416.73;253937;1107;115981;-70
2021/09/16 03:01:15;;;;;;;24.38;21.33;;;;;;;16.91;72.91;99429.91;253993;1107;116343;-70
2021/09/16 03:06:18;;;;;;;22.13;19.65;;;;;;;16.93;73.04;99433.12;254228;1107;116208;-70
2021/09/16 03:11:22;;;;;;;20.50;18.35;;;;;;;16.90;72.77;99426.41;253845;1107;116628;-70
2021/09/16 03:16:26;;;;;;;31.23;21.60;;;;;;;16.92;72.91;99426.93;254135;1101;117076;-70
2021/09/16 03:21:29;;;;;;;22.78;20.35;;;;;;;16.87;72.98;99428.86;253904;1100;116497;-69
2021/09/16 03:26:33;;;;;;;29.17;21.60;;;;;;;16.82;72.70;99410.86;253829;1100;116562;-69
2021/09/16 03:31:35;;;;;;;24.33;19.08;;;;;;;16.80;73.25;99407.68;253883;1107;116308;-69
2021/09/16 03:36:40;;;;;;;22.47;19.13;;;;;;;16.77;73.23;99411.73;254534;1100;116623;-69
2021/09/16 03:41:43;;;;;;;28.40;20.13;;;;;;;16.78;73.49;99409.84;254028;1107;116587;-69
2021/09/16 03:46:47;;;;;;;24.93;20.95;;;;;;;16.72;73.32;99402.91;255756;1107;115889;-69
2021/09/16 03:51:50;;;;;;;24.43;21.67;;;;;;;16.68;73.35;99391.89;256187;1107;115366;-70
2021/09/16 03:56:53;;;;;;;25.63;20.67;;;;;;;16.70;73.70;99394.30;256135;1106;115789;-69
2021/09/16 04:01:57;;;;;;;24.28;20.90;;;;;;;16.72;73.71;99390.25;254696;1100;116010;-68
2021/09/16 04:06:59;;;;;;;22.20;19.90;;;;;;;16.74;73.65;99387.27;254403;1107;115554;-68
2021/09/16 04:12:02;;;;;;;25.85;21.45;;;;;;;16.80;73.96;99402.30;253745;1107;115794;-70
2021/09/16 04:17:05;;;;;;;28.40;20.63;;;;;;;16.80;73.86;99399.60;255017;1107;116454;-67
2021/09/16 04:22:08;;;;;;;33.30;20.60;;;;;;;16.79;73.96;99389.92;254688;1107;115555;-68
2021/09/16 04:27:13;;;;;;;25.98;21.05;;;;;;;16.78;73.91;99388.31;253642;1107;115362;-69
2021/09/16 04:32:17;;;;;;;27.93;20.95;;;;;;;16.77;74.08;99386.70;254135;1107;115386;-70
2021/09/16 04:37:20;;;;;;;26.25;21.85;;;;;;;16.77;73.78;99374.05;254239;1107;116417;-67
2021/09/16 04:42:23;;;;;;;25.10;21.80;;;;;;;16.78;74.17;99378.35;253834;1107;115643;-68
2021/09/16 04:47:27;;;;;;;27.13;21.13;;;;;;;16.77;74.21;99387.52;254213;1106;116272;-70
2021/09/16 04:52:30;;;;;;;23.15;20.70;;;;;;;16.80;74.07;99391.53;253721;1100;117668;-69
2021/09/16 04:57:32;;;;;;;25.93;21.27;;;;;;;16.86;74.07;99398.44;254037;1107;116637;-69
2021/09/16 05:02:37;;;;;;;30.00;21.20;;;;;;;16.91;74.04;99387.63;254620;1106;115377;-71
2021/09/16 05:07:41;;;;;;;30.08;21.60;;;;;;;16.95;74.31;99385.17;253568;1103;115364;-69
2021/09/16 05:12:44;;;;;;;28.48;22.55;;;;;;;16.96;74.33;99392.16;253931;1107;116430;-70
2021/09/16 05:17:47;;;;;;;24.30;20.35;;;;;;;17.04;74.45;99386.97;253417;1100;116013;-69
2021/09/16 05:22:49;;;;;;;24.78;20.23;;;;;;;17.06;74.25;99387.48;254530;1107;115795;-69
2021/09/16 05:27:53;;;;;;;25.43;21.00;;;;;;;17.21;74.54;99391.89;253677;1100;116100;-68
2021/09/16 05:32:57;;;;;;;23.43;20.93;;;;;;;17.33;74.31;99389.61;254827;1106;115963;-70
2021/09/16 05:38:01;;;;;;;23.80;21.20;;;;;;;17.43;74.47;99388.66;254099;1100;115563;-69
2021/09/16 05:43:04;;;;;;;31.03;22.95;;;;;;;17.53;74.39;99385.86;255819;1107;115277;-70
2021/09/16 05:48:09;;;;;;;25.08;21.00;;;;;;;17.62;74.28;99394.91;256312;1106;115645;-69
2021/09/16 05:53:12;;;;;;;27.10;20.85;;;;;;;17.71;74.01;99390.52;256287;1107;116121;-69
2021/09/16 05:58:16;;;;;;;26.50;22.13;;;;;;;17.83;74.04;99390.88;256170;1107;116150;-69
2021/09/16 06:03:19;;;;;;;30.90;23.35;;;;;;;17.93;73.85;99394.53;256135;1106;116233;-70
2021/09/16 06:08:21;;;;;;;28.33;22.53;;;;;;;18.02;73.80;99382.81;253521;1107;115731;-68
2021/09/16 06:13:24;;;;;;;25.83;21.90;;;;;;;18.12;73.79;99385.34;255029;1107;115594;-68
2021/09/16 06:18:26;;;;;;;25.18;21.68;;;;;;;18.25;73.73;99378.41;253586;1107;115593;-69
2021/09/16 06:23:29;;;;;;;26.45;21.58;;;;;;;18.29;73.26;99379.43;255198;1107;115099;-69
2021/09/16 06:28:33;;;;;;;26.37;21.53;;;;;;;18.32;73.38;99386.94;253631;1103;116042;-70
2021/09/16 06:33:36;;;;;;;26.03;21.70;;;;;;;18.29;73.21;99379.43;253569;1107;116593;-70
2021/09/16 06:38:39;;;;;;;27.33;22.13;;;;;;;18.39;73.39;99386.54;253693;1107;116450;-69
2021/09/16 06:43:42;;;;;;;28.63;22.55;;;;;;;18.44;73.48;99384.57;253744;1107;115759;-69
2021/09/16 06:48:48;;;;;;;28.98;22.08;;;;;;;18.59;73.39;99393.52;253749;1107;115889;-70
2021/09/16 06:53:52;;;;;;;25.05;21.95;;;;;;;18.69;73.68;99404.16;253750;1107;116395;-69
2021/09/16 06:58:55;;;;;;;27.43;20.57;;;;;;;18.66;73.52;99404.75;253756;1107;116049;-70
2021/09/16 07:03:58;;;;;;;28.98;23.13;;;;;;;18.78;73.55;99407.80;253597;1107;116121;-69
2021/09/16 07:09:11;;;;;;;26.65;22.10;;;;;;;18.92;73.25;99410.53;253909;1101;115931;-69
2021/09/16 07:14:14;;;;;;;24.50;21.93;;;;;;;19.00;73.41;99409.83;254119;1107;115681;-70
2021/09/16 07:19:18;;;;;;;25.43;20.73;;;;;;;19.13;73.45;99417.97;253830;1106;115807;-72
2021/09/16 07:24:22;;;;;;;33.35;21.90;;;;;;;19.32;73.18;99417.06;253444;1107;116160;-71
2021/09/16 07:29:26;;;;;;;24.63;20.35;;;;;;;19.52;73.29;99416.72;253527;1107;115870;-70
2021/09/16 07:34:30;;;;;;;26.30;19.40;;;;;;;19.74;73.31;99419.49;253856;1106;115971;-72
2021/09/16 07:39:34;;;;;;;23.35;19.68;;;;;;;20.04;73.02;99423.44;255534;1107;115629;-72
2021/09/16 07:44:38;;;;;;;28.35;19.65;;;;;;;20.39;72.95;99418.34;256266;1107;115767;-71
2021/09/16 07:49:41;;;;;;;21.63;19.43;;;;;;;20.75;72.41;99418.28;256131;1106;115843;-71
2021/09/16 07:54:45;;;;;;;21.20;18.83;;;;;;;21.25;72.12;99413.46;256421;1107;115406;-71
2021/09/16 07:59:47;;;;;;;22.20;18.95;;;;;;;21.70;71.65;99419.52;256194;1107;116061;-71
2021/09/16 08:04:50;;;;;;;16.00;14.17;;;;;;;21.81;70.95;99425.42;254132;1107;115420;-69
2021/09/16 08:09:52;;;;;;;21.80;17.20;;;;;;;21.90;70.92;99422.73;253720;1107;115965;-70
2021/09/16 08:14:55;;;;;;;15.63;14.13;;;;;;;22.19;70.71;99420.23;253765;1107;206036;-71
2021/09/16 08:19:59;;;;;;;23.33;15.13;;;;;;;22.43;70.81;99431.41;253644;1107;115687;-69
2021/09/16 08:25:04;;;;;;;17.70;12.85;;;;;;;22.78;70.49;99425.97;253802;1106;116057;-71
2021/09/16 08:30:10;;;;;;;13.30;10.53;;;;;;;23.05;69.73;99430.22;253742;1107;115685;-70
2021/09/16 08:35:12;;;;;;;15.88;11.93;;;;;;;;;;254866;1106;116633;-70
2021/09/16 08:40:17;;;;;;;13.17;11.90;;;;;;;23.45;68.93;99436.15;255373;1106;102959;-71
2021/09/16 08:45:22;;;;;;;12.00;10.15;;;;;;;23.77;68.96;99429.29;253728;1107;117228;-68
2021/09/16 08:50:27;;;;;;;;;;;;;;;23.91;68.70;99429.82;254254;1107;116141;-71
2021/09/16 08:55:30;;;;;;;11.30;9.40;;;;;;;24.08;68.35;99440.61;254594;1106;103012;-70
2021/09/16 09:00:34;;;;;;;11.80;10.55;;;;;;;24.39;67.55;99442.96;253934;1103;117950;-68
2021/09/16 09:05:41;;;;;;;9.33;8.38;;;;;;;24.34;67.28;99429.55;254477;1107;116551;-70
2021/09/16 09:10:50;;;;;;;10.88;8.00;;;;;;;24.38;66.87;99438.64;254602;1090;115812;-68
2021/09/16 09:16:07;;;;;;;8.70;7.87;;;;;;;24.48;66.09;99437.42;255057;1105;115366;-69
2021/09/16 09:21:13;;;;;;;9.13;8.05;;;;;;;24.64;66.04;99432.95;255332;1107;114819;-68
2021/09/16 09:26:28;;;;;;;10.05;8.93;;;;;;;24.72;65.54;99429.36;255029;1106;116205;-66
2021/09/16 09:31:35;;;;;;;11.20;8.65;;;;;;;24.90;65.30;99429.97;254808;1106;115356;-68
2021/09/16 09:36:39;;;;;;;10.83;9.73;;;;;;;25.03;64.90;99420.72;255939;1106;115995;-70
2021/09/16 09:41:43;;;;;;;11.38;8.63;;;;;;;24.94;64.23;99424.64;256092;1107;117453;-70
2021/09/16 09:46:54;;;;;;;11.95;10.70;;;;;;;24.79;64.60;99426.06;256104;1107;115193;-70
2021/09/16 09:51:59;;;;;;;10.15;8.55;;;;;;;24.82;64.22;99422.66;256399;1106;116414;-70
2021/09/16 09:57:18;;;;;;;14.40;10.85;;;;;;;24.83;64.34;99432.44;255450;1104;115434;-70
2021/09/16 10:02:40;;;;;;;11.10;10.13;;;;;;;24.80;64.01;99431.18;256008;1104;116475;-70
2021/09/16 10:07:43;;;;;;;15.15;11.00;;;;;;;24.80;64.28;99427.66;254132;1099;116408;-71
2021/09/16 10:12:51;;;;;;;11.10;10.05;;;;;;;24.67;64.35;99439.67;254229;1102;116363;-69
2021/09/16 10:17:55;;;;;;;16.80;10.30;;;;;;;24.44;64.64;99431.07;253733;1107;115404;-72
2021/09/16 10:23:00;;;;;;;9.38;8.55;;;;;;;24.37;64.36;99431.60;253850;1107;116302;-71
2021/09/16 10:28:05;;;;;;;;;;;;;;;24.54;64.75;99416.22;254859;1107;116151;-70
2021/09/16 10:33:23;;;;;;;8.60;7.90;;;;;;;24.57;64.94;99424.52;255530;1106;103125;-71
2021/09/16 10:38:27;;;;;;;8.98;8.00;;;;;;;24.43;64.72;99421.30;254233;1107;114958;-71
2021/09/16 10:43:30;;;;;;;9.47;8.63;;;;;;;24.17;64.18;99419.53;254079;1107;115136;-70
2021/09/16 10:48:34;;;;;;;15.63;10.73;;;;;;;23.76;65.22;99458.42;254234;1103;115631;-70
2021/09/16 10:53:46;;;;;;;18.30;13.03;;;;;;;23.15;65.65;99444.27;253698;1102;116629;-71
2021/09/16 10:58:57;;;;;;;10.67;9.70;;;;;;;22.78;66.62;99426.77;254832;1107;115056;-70
2021/09/16 11:04:07;;;;;;;16.75;9.55;;;;;;;22.80;68.08;99419.09;254019;1107;115236;-70
2021/09/16 11:09:12;;;;;;;18.65;9.93;;;;;;;22.86;68.95;99424.36;254958;1107;114839;-70
2021/09/16 11:14:34;;;;;;;11.95;8.50;;;;;;;23.01;68.95;99421.11;254215;1106;115651;-70
2021/09/16 11:19:49;;;;;;;10.30;9.43;;;;;;;23.10;69.64;99422.69;253838;1106;115484;-70
2021/09/16 11:24:56;;;;;;;10.93;9.83;;;;;;;23.23;70.01;99425.53;254544;1106;115927;-69
2021/09/16 11:30:03;;;;;;;10.30;9.40;;;;;;;23.09;70.04;99431.96;254184;1107;115060;-70
2021/09/16 11:35:10;;;;;;;11.73;10.53;;;;;;;22.96;69.48;99432.95;254585;1107;115470;-70
2021/09/16 11:40:21;;;;;;;9.60;8.70;;;;;;;22.82;69.50;99432.36;255794;1107;115024;-69
2021/09/16 11:45:29;;;;;;;5.55;5.15;;;;;;;22.78;69.33;99420.53;256269;1106;114886;-70
2021/09/16 11:50:32;;;;;;;7.60;6.98;;;;;;;22.96;69.43;99422.08;255484;1104;116074;-71
2021/09/16 11:55:45;;;;;;;8.90;8.00;;;;;;;23.36;69.39;99416.34;254150;1107;115908;-70
2021/09/16 12:00:52;;;;;;;9.68;7.60;;;;;;;23.86;68.93;99405.51;254350;1107;114703;-69
2021/09/16 12:05:56;;;;;;;8.40;7.70;;;;;;;23.89;67.89;99409.50;254739;1107;114760;-71
2021/09/16 12:11:02;;;;;;;10.35;7.83;;;;;;;23.81;67.55;99403.01;255071;1107;115524;-70
2021/09/16 12:16:19;;;;;;;12.65;7.70;;;;;;;23.73;67.88;99406.58;254960;1107;115387;-72
2021/09/16 12:21:30;;;;;;;8.33;7.63;;;;;;;23.61;67.57;99411.91;254582;1107;115217;-68
2021/09/16 12:26:42;;;;;;;7.65;6.75;;;;;;;23.70;67.80;99401.79;254456;1107;116106;-69
2021/09/16 12:31:58;;;;;;;9.10;7.35;;;;;;;23.83;67.58;99400.75;255165;1107;115298;-71
2021/09/16 12:37:15;;;;;;;8.88;8.13;;;;;;;23.86;67.55;99397.34;253732;1101;115878;-72
2021/09/16 12:42:34;;;;;;;9.40;8.45;;;;;;;23.87;67.15;99396.22;253691;1107;118185;-72
2021/09/16 12:47:49;;;;;;;7.38;6.78;;;;;;;23.74;66.94;99408.17;254418;1107;115909;-71
2021/09/16 12:52:54;;;;;;;9.34;8.44;;;;;;;23.65;67.16;99405.49;254389;1107;115231;-71
2021/09/16 12:58:06;;;;;;;10.78;7.88;;;;;;;23.62;67.11;99399.91;253536;1107;115294;-73
2021/09/16 13:03:18;;;;;;;7.30;6.80;;;;;;;23.52;66.88;99398.35;253708;1107;116034;-72
2021/09/16 13:08:27;;;;;;;9.73;7.65;;;;;;;23.44;66.45;99399.98;253711;1107;115514;-72
2021/09/16 13:13:33;;;;;;;7.68;6.98;;;;;;;23.48;67.19;99402.85;253652;1107;115098;-72
2021/09/16 13:18:37;;;;;;;9.08;8.15;;;;;;;23.48;67.13;99397.41;254262;1106;115347;-70
2021/09/16 13:23:44;;;;;;;7.85;7.15;;;;;;;23.40;67.15;99393.60;253762;1107;115238;-73
2021/09/16 13:28:48;;;;;;;9.08;8.18;;;;;;;23.29;67.44;99397.80;255568;1107;115397;-69
2021/09/16 13:33:52;;;;;;;7.53;6.83;;;;;;;23.27;67.92;99394.61;254995;1107;115458;-69
2021/09/16 13:38:56;;;;;;;6.70;6.20;;;;;;;23.34;67.97;99396.83;256200;1107;115280;-71
2021/09/16 13:43:59;;;;;;;6.38;5.88;;;;;;;23.52;67.57;99395.63;256392;1106;116131;-73
2021/09/16 13:49:03;;;;;;;5.53;5.13;;;;;;;23.58;66.53;99393.52;255968;1106;115712;-71
2021/09/16 13:54:07;;;;;;;13.58;4.70;;;;;;;23.44;66.68;99394.55;256109;1106;116119;-71
2021/09/16 13:59:11;;;;;;;7.18;6.48;;;;;;;23.17;66.62;99403.16;255244;1100;116943;-72
2021/09/16 14:04:15;;;;;;;9.60;8.60;;;;;;;22.99;66.64;99399.69;253845;1100;115316;-71
2021/09/16 14:12:53;;;;;;;10.93;9.80;;;;;;;22.80;67.45;99408.22;260074;1092;103784;-70
2021/09/16 14:17:57;;;;;;;8.58;7.78;;;;;;;22.76;67.40;99420.03;255526;1103;115167;-71
2021/09/16 14:23:00;;;;;;;6.33;5.80;;;;;;;22.66;67.17;99425.79;254352;1099;114794;-74
2021/09/16 14:28:05;;;;;;;7.05;6.25;;;;;;;22.60;67.33;99419.75;254431;1098;114758;-73
2021/09/16 14:33:10;;;;;;;7.60;6.90;;;;;;;22.64;67.41;99415.24;254065;1098;115459;-73
2021/09/16 14:38:13;;;;;;;7.78;7.08;;;;;;;22.61;67.48;99415.11;254466;1104;115279;-69
2021/09/16 14:43:17;;;;;;;8.77;7.73;;;;;;;22.53;67.04;99407.77;254555;1104;115298;-73
2021/09/16 14:48:21;;;;;;;10.03;7.90;;;;;;;22.44;66.93;99419.43;254240;1104;115539;-72
2021/09/16 14:53:24;;;;;;;6.35;5.80;;;;;;;22.33;67.12;99410.00;254373;1103;115049;-76
2021/09/16 14:58:30;;;;;;;7.80;7.20;;;;;;;22.26;67.45;99417.05;255267;1104;115021;-70
2021/09/16 15:03:34;;;;;;;7.80;7.10;;;;;;;22.20;67.92;99426.47;255622;1104;114654;-70
2021/09/16 15:08:38;;;;;;;8.00;7.40;;;;;;;22.10;67.88;99417.52;255056;1099;114655;-70
2021/09/16 15:13:43;;;;;;;9.57;8.80;;;;;;;22.04;67.98;99412.55;254233;1099;115527;-69
2021/09/16 15:18:46;;;;;;;8.78;7.90;;;;;;;21.94;68.48;99407.42;255118;1100;115652;-72
2021/09/16 15:23:50;;;;;;;8.97;7.17;;;;;;;21.85;68.02;99408.20;256122;1103;114366;-70
2021/09/16 15:28:53;;;;;;;11.73;9.47;;;;;;;21.81;68.67;99404.52;255749;1104;115052;-71
2021/09/16 15:33:57;;;;;;;10.13;9.13;;;;;;;21.74;68.74;99398.76;256373;1103;115278;-72
2021/09/16 15:39:00;;;;;;;10.00;8.60;;;;;;;21.73;69.22;99396.36;255956;1104;116080;-72
2021/09/16 15:44:03;;;;;;;10.20;9.20;;;;;;;21.67;69.46;99403.07;257068;1103;115724;-70
2021/09/16 15:49:07;;;;;;;9.15;8.23;;;;;;;21.63;69.48;99405.61;256874;1104;115717;-70
2021/09/16 15:54:11;;;;;;;10.08;9.10;;;;;;;21.59;69.86;99406.55;255309;1104;115168;-70
2021/09/16 15:59:14;;;;;;;8.47;7.53;;;;;;;21.59;70.38;99403.84;256669;1104;115238;-70
2021/09/16 16:04:18;;;;;;;9.75;8.85;;;;;;;21.43;70.15;99403.46;256211;1103;115971;-72
2021/09/16 16:09:22;;;;;;;10.55;8.75;;;;;;;21.37;70.70;99415.59;254699;1104;115583;-69
2021/09/16 16:14:26;;;;;;;9.70;8.75;;;;;;;21.31;70.87;99412.22;254333;1104;115745;-69
2021/09/16 16:19:30;;;;;;;8.77;7.97;;;;;;;21.22;71.26;99414.08;255250;1104;115693;-70
2021/09/16 16:24:34;;;;;;;12.23;8.50;;;;;;;21.11;71.36;99412.72;254371;1104;116515;-71
2021/09/16 16:29:37;;;;;;;13.03;9.85;;;;;;;20.90;71.52;99423.30;254264;1100;116668;-69
2021/09/16 16:34:41;;;;;;;8.93;8.10;;;;;;;20.73;72.12;99421.30;255096;1104;203647;-71
2021/09/16 16:39:46;;;;;;;16.30;8.83;;;;;;;20.69;72.33;99424.94;254181;1104;115353;-72
2021/09/16 16:44:50;;;;;;;8.38;7.68;;;;;;;20.63;72.51;99426.16;254134;1104;115327;-75
2021/09/16 16:49:53;;;;;;;9.88;8.98;;;;;;;20.61;73.14;99426.47;255128;1104;114726;-72
2021/09/16 16:54:56;;;;;;;9.38;8.58;;;;;;;20.54;72.92;99420.67;254241;1100;114716;-73
2021/09/16 16:59:59;;;;;;;10.33;9.40;;;;;;;20.53;73.38;99429.11;255045;1104;115924;-72
2021/09/16 17:05:03;;;;;;;10.63;9.63;;;;;;;20.47;73.19;99423.84;255069;1099;117472;-72
2021/09/16 17:10:07;;;;;;;10.08;9.00;;;;;;;20.45;73.29;99426.05;254184;1104;115452;-72
2021/09/16 17:15:12;;;;;;;9.27;8.37;;;;;;;20.34;73.55;99438.19;254061;1104;115589;-71
2021/09/16 17:20:16;;;;;;;;;;;;;;;20.27;73.22;99437.80;254135;1103;116362;-72
2021/09/16 17:25:21;;;;;;;9.38;8.43;;;;;;;20.10;73.60;99437.66;255848;1104;103429;-72
2021/09/16 17:30:37;;;;;;;9.70;8.90;;;;;;;20.05;73.81;99451.30;254087;1104;115441;-74
2021/09/16 17:35:40;;;;;;;9.68;8.78;;;;;;;20.00;74.06;99443.28;254705;1104;115900;-74
2021/09/16 17:40:45;;;;;;;9.30;8.50;;;;;;;19.98;74.30;99448.20;255780;1104;115089;-73
2021/09/16 17:45:48;;;;;;;10.25;9.35;;;;;;;19.96;74.23;99453.11;254693;1104;115516;-72
2021/09/16 17:50:51;;;;;;;12.33;10.87;;;;;;;19.86;74.11;99461.46;257344;1104;116655;-73
2021/09/16 17:55:53;;;;;;;15.43;11.35;;;;;;;19.80;74.39;99463.46;254554;1104;116292;-72
2021/09/16 18:00:58;;;;;;;11.37;10.27;;;;;;;19.78;74.09;99458.36;254835;1104;115913;-72
2021/09/16 18:06:01;;;;;;;10.93;9.83;;;;;;;19.77;74.45;99453.25;255957;1103;117958;-71
2021/09/16 18:11:05;;;;;;;12.68;8.65;;;;;;;19.76;74.34;99455.15;254165;1104;116128;-72
2021/09/16 18:16:08;;;;;;;10.45;9.28;;;;;;;19.77;74.29;99464.87;254334;1104;118092;-73
2021/09/16 18:21:12;;;;;;;9.75;8.75;;;;;;;19.73;74.15;99463.86;255549;1104;114549;-72
2021/09/16 18:26:15;;;;;;;9.60;8.60;;;;;;;19.58;74.19;99469.56;254278;1104;115454;-72
2021/09/16 18:31:18;;;;;;;14.00;10.73;;;;;;;19.53;74.63;99469.69;254209;1104;114829;-72
2021/09/16 18:36:22;;;;;;;12.60;9.93;;;;;;;19.50;74.69;99464.84;254201;1104;115727;-73
2021/09/16 18:41:24;;;;;;;10.53;9.43;;;;;;;19.47;74.69;99470.84;254164;1103;114446;-72
2021/09/16 18:46:28;;;;;;;8.75;7.95;;;;;;;19.47;74.86;99465.44;254326;1104;114910;-72
2021/09/16 18:51:32;;;;;;;22.75;9.93;;;;;;;19.48;74.85;99469.75;254715;1104;114660;-72
2021/09/16 18:56:36;;;;;;;10.60;9.60;;;;;;;19.45;74.97;99465.73;254586;1104;114665;-72
2021/09/16 19:01:39;;;;;;;11.97;9.40;;;;;;;19.41;75.08;99466.63;254554;1098;115936;-72
2021/09/16 19:06:43;;;;;;;10.07;9.27;;;;;;;19.38;75.22;99467.23;254811;1104;115122;-71
2021/09/16 19:11:47;;;;;;;11.37;9.87;;;;;;;19.36;75.02;99466.72;254299;1104;116314;-71
2021/09/16 19:16:51;;;;;;;12.58;10.25;;;;;;;19.39;75.30;99468.83;254337;1104;116126;-71
2021/09/16 19:21:55;;;;;;;11.50;10.33;;;;;;;19.41;75.38;99466.63;254050;1104;115691;-71
2021/09/16 19:26:59;;;;;;;12.48;11.30;;;;;;;19.42;75.32;99470.94;254284;1104;115757;-71
2021/09/16 19:32:03;;;;;;;12.47;10.73;;;;;;;19.37;75.53;99462.92;254938;1104;115845;-71
2021/09/16 19:37:10;;;;;;;16.98;12.03;;;;;;;19.32;75.13;99458.41;255901;1104;134732;-73
2021/09/16 19:42:14;;;;;;;13.47;10.67;;;;;;;19.30;75.31;99459.80;256462;1104;116280;-73
2021/09/16 19:47:17;;;;;;;12.57;11.27;;;;;;;19.25;75.24;99455.32;257223;1104;117225;-72
2021/09/16 19:52:23;;;;;;;12.70;11.43;;;;;;;19.26;74.85;99453.42;256799;1103;114726;-72
2021/09/16 19:57:27;;;;;;;12.53;11.33;;;;;;;19.16;75.07;99452.50;255729;1104;115175;-70
2021/09/16 20:02:30;;;;;;;14.15;11.10;;;;;;;19.11;75.22;99466.09;256244;1103;116777;-72
2021/09/16 20:07:35;;;;;;;11.90;10.67;;;;;;;19.03;75.25;99458.66;254786;1104;114765;-72
2021/09/16 20:12:39;;;;;;;10.73;9.60;;;;;;;18.99;74.98;99457.65;254456;1104;116420;-73
2021/09/16 20:17:45;;;;;;;11.30;9.40;;;;;;;18.94;75.00;99455.06;254822;1098;115647;-75
2021/09/16 20:22:49;;;;;;;13.80;9.98;;;;;;;18.85;74.77;99462.23;254770;1104;115202;-78
2021/09/16 20:27:53;;;;;;;10.75;9.23;;;;;;;18.75;74.89;99465.09;254312;1104;115481;-73
2021/09/16 20:32:57;;;;;;;11.57;9.07;;;;;;;18.70;75.04;99457.87;255788;1104;115460;-74
2021/09/16 20:38:01;;;;;;;11.60;7.93;;;;;;;18.64;74.90;99461.77;254508;1100;115361;-75
2021/09/16 20:43:05;;;;;;;9.23;7.68;;;;;;;18.63;74.78;99470.16;254451;1102;115638;-77
2021/09/16 20:48:09;;;;;;;10.95;8.48;;;;;;;18.60;74.61;99478.84;254077;1104;115349;-78
2021/09/16 20:53:13;;;;;;;10.27;9.33;;;;;;;18.55;74.91;99482.39;254361;1102;115644;-74
2021/09/16 20:58:17;;;;;;;8.48;7.60;;;;;;;18.55;74.73;99481.59;254364;1096;115467;-77
2021/09/16 21:03:19;;;;;;;11.10;8.77;;;;;;;18.51;74.77;99484.06;254866;1096;115971;-73
2021/09/16 21:08:22;;;;;;;12.25;8.98;;;;;;;18.45;74.68;99479.83;254543;1104;115601;-75
2021/09/16 21:13:25;;;;;;;8.95;7.63;;;;;;;18.38;74.77;99479.39;254116;1104;115816;-74
2021/09/16 21:18:27;;;;;;;8.30;7.53;;;;;;;18.37;74.83;99485.88;254448;1104;115600;-73
2021/09/16 21:23:31;;;;;;;15.38;8.38;;;;;;;18.35;74.60;99485.37;254049;1100;115544;-72
2021/09/16 21:28:34;;;;;;;9.80;8.77;;;;;;;18.35;74.55;99488.87;254712;1102;115052;-70
2021/09/16 21:33:36;;;;;;;9.95;8.30;;;;;;;18.33;74.88;99477.59;254638;1103;115873;-74
2021/09/16 21:38:38;;;;;;;9.75;7.65;;;;;;;18.33;74.61;99479.48;255516;1104;115766;-74
2021/09/16 21:43:42;;;;;;;7.87;7.07;;;;;;;18.27;74.28;99477.95;257464;1104;115308;-72
2021/09/16 21:48:44;;;;;;;6.83;6.23;;;;;;;18.25;74.28;99477.44;257312;1103;114546;-79
2021/09/16 21:53:47;;;;;;;7.98;6.13;;;;;;;18.24;74.15;99468.54;254283;1104;114518;-73
2021/09/16 21:58:51;;;;;;;7.87;6.50;;;;;;;18.17;74.07;99476.19;256416;1104;116025;-73
2021/09/16 22:03:53;;;;;;;8.60;6.90;;;;;;;18.10;73.59;99475.73;255078;1103;115607;-72
2021/09/16 22:08:57;;;;;;;5.20;4.68;;;;;;;18.03;73.43;99483.41;254199;1103;115481;-72
2021/09/16 22:14:00;;;;;;;5.90;5.45;;;;;;;17.94;73.60;99475.14;254351;1104;115673;-72
2021/09/16 22:19:03;;;;;;;5.18;4.78;;;;;;;17.88;73.41;99484.39;254266;1099;116896;-74
2021/09/16 22:24:06;;;;;;;4.63;4.23;;;;;;;17.79;73.42;99481.52;255350;1103;115752;-69
2021/09/16 22:29:10;;;;;;;8.00;4.35;;;;;;;17.71;73.00;99482.17;254439;1104;116147;-73
2021/09/16 22:34:14;;;;;;;4.73;3.95;;;;;;;17.67;73.02;99475.75;254672;1102;115438;-71
2021/09/16 22:39:17;;;;;;;4.97;4.17;;;;;;;17.63;73.12;99471.98;254240;1104;115386;-72
2021/09/16 22:44:19;;;;;;;5.20;4.28;;;;;;;17.58;73.32;99455.88;254144;1104;115285;-73
2021/09/16 22:49:22;;;;;;;9.78;4.13;;;;;;;17.55;73.08;99459.14;254390;1103;118181;-73
2021/09/16 22:54:26;;;;;;;5.78;3.68;;;;;;;17.52;73.13;99462.41;254565;1104;115649;-75
2021/09/16 22:59:29;;;;;;;6.00;3.23;;;;;;;17.49;72.96;99474.55;254248;1103;115083;-76
2021/09/16 23:04:32;;;;;;;5.75;4.58;;;;;;;17.44;72.96;99474.61;255145;1104;115409;-73
2021/09/16 23:09:36;;;;;;;4.20;3.90;;;;;;;17.36;73.03;99477.14;254346;1098;116491;-74